Time;durP1;ratioP1;P1;durP2;ratioP2;P2;SDS_P1;SDS_P2;PMS_P1;PMS_P2;Temp;Humidity;BMP_temperature;BMP_pressure;BME280_temperature;BME280_humidity;BME280_pressure;Samples;Min_cycle;Max_cycle;Signal;HPM_P1;HPM_P2
2024/02/01 00:01:22;;;;;;;6.53;3.47;;;;;;;6.96;49.58;96288.88;6165427;23;20008;-87
2024/02/01 00:21:43;;;;;;;5.72;3.08;;;;;;;7.78;47.09;96260.25;6187879;22;20039;-87
2024/02/01 00:24:09;;;;;;;6.07;3.20;;;;;;;7.93;46.85;96260.69;6188052;23;20008;-87
2024/02/01 00:26:36;;;;;;;5.07;3.33;;;;;;;8.03;46.57;96260.69;6188228;23;19993;-87
2024/02/01 00:57:37;;;;;;;6.85;3.50;;;;;;;8.21;45.73;96222.78;6237056;23;20024;-87
2024/02/01 01:00:02;;;;;;;5.95;3.25;;;;;;;8.21;45.53;96207.22;6212596;23;20044;-87
2024/02/01 01:02:28;;;;;;;4.28;3.30;;;;;;;8.39;45.27;96219.47;6187693;23;20005;-87
2024/02/01 01:04:53;;;;;;;5.65;3.38;;;;;;;8.16;45.94;96211.19;6163152;23;20049;-87
2024/02/01 01:25:41;;;;;;;6.72;3.67;;;;;;;7.87;46.53;96231.94;6240168;23;20028;-88
2024/02/01 01:28:09;;;;;;;4.55;3.45;;;;;;;7.74;46.96;96219.25;6192672;23;20133;-87
2024/02/01 01:46:02;;;;;;;5.68;3.78;;;;;;;8.12;46.09;96241.75;6243061;22;20028;-87
2024/02/01 01:48:31;;;;;;;5.03;3.58;;;;;;;8.10;46.05;96235.06;6217740;23;20008;-87
2024/02/01 01:50:57;;;;;;;5.32;3.65;;;;;;;8.19;46.43;96245.44;6217316;23;20012;-87
2024/02/01 01:53:24;;;;;;;7.07;3.70;;;;;;;8.01;46.88;96234.09;6217324;23;20004;-87
2024/02/01 02:00:50;;;;;;;6.00;3.90;;;;;;;8.19;46.35;96234.25;6199780;22;20035;-87
2024/02/01 02:03:15;;;;;;;6.35;4.28;;;;;;;7.97;47.06;96245.69;6187595;23;20012;-87
2024/02/01 02:05:41;;;;;;;5.82;4.10;;;;;;;7.89;46.91;96242.97;6187151;23;20005;-87
2024/02/01 02:08:07;;;;;;;7.35;3.92;;;;;;;7.83;47.03;96245.16;6187366;23;20056;-87
2024/02/01 02:10:33;;;;;;;6.50;4.13;;;;;;;7.47;47.79;96238.00;6162535;23;20025;-87
2024/02/01 02:17:59;;;;;;;5.95;3.70;;;;;;;7.76;47.72;96261.34;6211210;22;20028;-86
2024/02/01 02:20:26;;;;;;;5.80;3.92;;;;;;;8.05;46.95;96265.75;6192342;23;20012;-86
2024/02/01 02:22:54;;;;;;;5.38;3.60;;;;;;;8.08;47.20;96268.88;6192297;23;20083;-87
2024/02/01 02:33:00;;;;;;;5.53;2.97;;;;;;;8.42;46.95;96268.50;6182647;23;20021;-87
2024/02/01 02:35:26;;;;;;;4.75;3.15;;;;;;;8.53;46.61;96265.75;6157059;23;20194;-86
2024/02/01 02:37:55;;;;;;;5.20;3.00;;;;;;;8.65;46.21;96268.19;6157112;23;20008;-88
2024/02/01 02:40:24;;;;;;;3.67;2.80;;;;;;;8.46;46.80;96264.69;6157790;23;20016;-87
2024/02/01 02:42:49;;;;;;;4.63;2.97;;;;;;;8.44;46.77;96274.38;6132366;23;20048;-87
2024/02/01 02:47:51;;;;;;;2.92;2.60;;;;;;;8.72;45.89;96272.69;6216122;22;20020;-87
2024/02/01 02:55:16;;;;;;;3.75;2.80;;;;;;;8.30;47.33;96270.41;6186490;22;20254;-87
2024/02/01 02:57:42;;;;;;;3.83;2.72;;;;;;;8.46;46.94;96271.63;6162064;23;20027;-87
2024/02/01 03:00:09;;;;;;;6.53;2.97;;;;;;;8.68;47.13;96273.94;6186433;23;20020;-87
2024/02/01 03:02:35;;;;;;;6.65;2.95;;;;;;;8.65;46.64;96271.59;6186839;23;20043;-87
2024/02/01 03:05:01;;;;;;;6.88;2.60;;;;;;;8.82;46.47;96280.44;6162329;23;20012;-87
2024/02/01 03:15:05;;;;;;;4.00;2.60;;;;;;;8.80;46.28;96252.03;6215932;22;20016;-86
2024/02/01 03:23:13;;;;;;;4.78;2.72;;;;;;;9.13;46.27;96246.47;6239774;22;20024;-87
2024/02/01 03:25:39;;;;;;;5.55;2.88;;;;;;;9.48;45.41;96263.94;6191338;23;20012;-88
2024/02/01 03:28:06;;;;;;;4.35;2.60;;;;;;;9.42;45.12;96256.72;6216687;23;20086;-87
2024/02/01 03:30:33;;;;;;;3.15;2.85;;;;;;;9.33;45.39;96252.41;6242033;23;20070;-86
2024/02/01 03:35:24;;;;;;;4.47;2.80;;;;;;;9.14;46.26;96235.16;6189661;22;20024;-86
2024/02/01 03:37:50;;;;;;;5.70;2.80;;;;;;;9.20;45.93;96258.72;6162067;23;20035;-87
2024/02/01 03:40:18;;;;;;;4.32;3.00;;;;;;;9.19;45.51;96251.09;6161957;23;20063;-87
2024/02/01 03:42:46;;;;;;;6.82;3.83;;;;;;;9.20;46.03;96260.53;6186740;23;20004;-86
2024/02/01 03:55:22;;;;;;;6.95;4.35;;;;;;;9.77;45.46;96279.34;6229667;22;20024;-87
2024/02/01 03:57:48;;;;;;;7.00;4.60;;;;;;;9.94;45.56;96287.34;6217860;23;20011;-88
2024/02/01 04:13:05;;;;;;;8.32;5.05;;;;;;;10.38;44.13;96245.81;6243381;22;20020;-88
2024/02/01 04:15:31;;;;;;;9.30;5.28;;;;;;;10.43;45.25;96272.19;6218207;23;20020;-87
2024/02/01 04:18:04;;;;;;;9.68;5.60;;;;;;;10.46;45.25;96258.06;6218319;23;20004;-87
2024/02/01 04:20:35;;;;;;;9.38;5.20;;;;;;;10.53;44.96;96257.31;6219660;23;20015;-87
2024/02/01 04:28:53;;;;;;;8.85;5.20;;;;;;;10.80;45.03;96252.13;6183480;23;20052;-87
2024/02/01 04:31:22;;;;;;;7.85;5.30;;;;;;;10.65;45.86;96270.09;6183415;23;20017;-88
2024/02/01 04:33:50;;;;;;;10.85;5.63;;;;;;;10.88;45.18;96266.00;6183442;23;20013;-87
2024/02/01 04:38:44;;;;;;;9.13;5.00;;;;;;;10.99;44.23;96272.75;6238816;22;20024;-87
2024/02/01 04:41:12;;;;;;;8.55;5.20;;;;;;;10.98;43.96;96268.50;6218138;23;20312;-87
2024/02/01 04:43:40;;;;;;;10.82;5.20;;;;;;;11.03;44.09;96270.66;6194499;23;20007;-88
2024/02/01 04:48:31;;;;;;;7.07;4.95;;;;;;;11.27;44.12;96265.56;6188984;23;20021;-87
2024/02/01 04:50:56;;;;;;;7.78;4.85;;;;;;;11.37;44.02;96264.63;6188111;23;20015;-87
2024/02/01 04:53:23;;;;;;;7.22;4.72;;;;;;;11.15;44.06;96265.00;6187522;23;20015;-87
2024/02/01 04:55:50;;;;;;;8.68;5.15;;;;;;;11.11;44.11;96262.88;6212694;23;20040;-87
2024/02/01 04:58:18;;;;;;;7.70;4.80;;;;;;;11.12;43.77;96247.09;6187696;23;20031;-87
2024/02/01 05:06:56;;;;;;;7.70;4.75;;;;;;;11.00;43.81;96268.34;6238708;23;20024;-87
2024/02/01 05:09:25;;;;;;;8.95;4.57;;;;;;;11.14;43.65;96254.78;6242016;23;20023;-87
2024/02/01 05:11:54;;;;;;;6.28;4.65;;;;;;;11.34;43.51;96252.72;6193453;23;20018;-87
2024/02/01 05:14:20;;;;;;;7.53;4.97;;;;;;;10.87;44.42;96235.75;6217809;23;20015;-87
2024/02/01 05:16:50;;;;;;;8.68;4.97;;;;;;;10.88;44.44;96231.34;6217888;23;20004;-87
2024/02/01 05:19:17;;;;;;;6.95;4.55;;;;;;;11.08;43.76;96243.19;6193012;23;20050;-86
2024/02/01 05:21:44;;;;;;;8.20;4.80;;;;;;;11.06;43.98;96228.66;6217564;23;20007;-87
2024/02/01 05:26:37;;;;;;;8.73;4.60;;;;;;;11.21;43.80;96247.13;6241681;22;20024;-88
2024/02/01 05:52:02;;;;;;;8.02;4.55;;;;;;;11.33;44.98;96220.66;6243774;22;20043;-86
2024/02/01 05:54:33;;;;;;;8.00;4.60;;;;;;;11.29;45.50;96231.53;6217371;23;20012;-87
2024/02/01 05:56:59;;;;;;;9.77;5.10;;;;;;;11.30;46.04;96241.00;6216992;23;20008;-87
2024/02/01 05:59:24;;;;;;;7.45;4.70;;;;;;;11.17;46.62;96236.22;6192530;23;20008;-88
2024/02/01 06:01:50;;;;;;;7.55;5.25;;;;;;;11.11;47.47;96213.41;6217441;23;20138;-86
2024/02/01 06:04:16;;;;;;;9.55;5.28;;;;;;;10.98;48.24;96223.44;6242578;23;20000;-87
2024/02/01 06:06:46;;;;;;;9.05;5.78;;;;;;;10.57;49.26;96200.59;6217381;23;20066;-87
2024/02/01 06:21:49;;;;;;;9.68;5.95;;;;;;;10.23;50.88;96179.69;6240486;22;20020;-88
2024/02/01 06:24:18;;;;;;;8.20;6.45;;;;;;;10.41;49.85;96174.47;6217394;23;20076;-86
2024/02/01 06:26:43;;;;;;;9.50;6.18;;;;;;;10.65;49.12;96168.63;6217459;23;20032;-88
2024/02/01 06:29:09;;;;;;;10.35;6.25;;;;;;;10.54;49.61;96167.09;6217200;23;20000;-87
2024/02/01 06:39:37;;;;;;;8.38;5.72;;;;;;;10.83;48.38;96169.34;6242870;22;20028;-88
2024/02/01 06:42:14;;;;;;;13.23;7.25;;;;;;;10.71;48.45;96168.00;6217638;23;20043;-88
2024/02/01 06:44:47;;;;;;;11.98;7.40;;;;;;;10.59;49.37;96164.03;6194158;23;20004;-87
2024/02/01 06:50:02;;;;;;;14.63;9.98;;;;;;;10.62;48.83;96161.13;6240853;22;20012;-87
2024/02/01 06:52:40;;;;;;;10.95;6.57;;;;;;;10.82;48.88;96154.72;6217193;23;20077;-87
2024/02/01 07:16:04;;;;;;;9.77;5.50;;;;;;;11.39;47.85;96177.53;6235611;22;20047;-87
2024/02/01 07:18:33;;;;;;;12.68;6.75;;;;;;;11.41;49.40;96180.81;6216512;23;20008;-88
2024/02/01 07:21:09;;;;;;;10.30;5.95;;;;;;;10.94;50.50;96179.47;6217647;23;20040;-88
2024/02/01 07:23:34;;;;;;;11.43;5.63;;;;;;;10.90;50.32;96178.16;6218803;23;20036;-87
2024/02/01 08:00:45;;;;;;;20.13;11.30;;;;;;;9.66;50.64;96200.81;6163135;23;20029;-87
2024/02/01 08:03:22;;;;;;;61.15;39.42;;;;;;;9.68;50.92;96202.28;6159003;23;20067;-87
2024/02/01 08:08:35;;;;;;;18.33;12.18;;;;;;;9.74;51.25;96209.50;6161904;23;20020;-86
2024/02/01 08:31:50;;;;;;;15.02;7.90;;;;;;;9.76;52.00;96250.91;6183198;23;20029;-88
2024/02/01 08:34:17;;;;;;;12.70;6.50;;;;;;;9.73;52.21;96267.63;6182069;23;20005;-87
2024/02/01 08:36:47;;;;;;;8.93;5.70;;;;;;;9.71;51.89;96274.75;6157914;23;19994;-87
2024/02/01 08:49:16;;;;;;;8.30;5.35;;;;;;;9.03;52.76;96285.44;6243907;22;20027;-88
2024/02/01 08:51:43;;;;;;;9.95;5.78;;;;;;;9.16;52.05;96295.50;6193691;23;20094;-88
2024/02/01 08:54:10;;;;;;;10.48;5.88;;;;;;;8.97;52.74;96296.38;6217920;23;20027;-87
2024/02/01 08:56:36;;;;;;;8.95;5.88;;;;;;;8.96;52.75;96305.94;6194147;23;20035;-88
2024/02/01 08:59:03;;;;;;;12.48;6.38;;;;;;;8.94;53.40;96300.06;6192960;23;20015;-87
2024/02/01 09:01:30;;;;;;;16.42;6.85;;;;;;;8.97;54.29;96317.97;6218030;23;20012;-86
2024/02/01 09:03:56;;;;;;;10.68;6.90;;;;;;;9.05;53.87;96308.66;6218113;23;20011;-87
2024/02/01 09:19:17;;;;;;;7.95;5.75;;;;;;;9.64;52.09;96341.22;6241658;22;20023;-87
2024/02/01 09:21:45;;;;;;;8.93;5.30;;;;;;;9.84;51.07;96354.94;6218045;23;20020;-88
2024/02/01 09:24:13;;;;;;;8.38;5.38;;;;;;;9.84;52.14;96356.72;6217506;23;20016;-88
2024/02/01 09:26:41;;;;;;;12.32;6.00;;;;;;;9.91;52.09;96355.19;6193813;23;20015;-87
2024/02/01 09:41:57;;;;;;;9.93;7.97;;;;;;;9.32;56.41;96346.81;6242772;22;20020;-88
2024/02/01 09:44:23;;;;;;;10.70;7.55;;;;;;;9.56;55.29;96354.13;6217030;23;20086;-87
2024/02/01 09:46:49;;;;;;;11.82;6.05;;;;;;;9.51;55.96;96351.94;6217127;23;20062;-87
2024/02/01 09:56:53;;;;;;;11.45;6.30;;;;;;;9.84;54.98;96346.31;6240587;22;20027;-88
2024/02/01 09:59:18;;;;;;;9.13;6.00;;;;;;;9.83;55.73;96344.69;6192638;23;20035;-88
2024/02/01 10:21:21;;;;;;;140.52;68.63;;;;;;;10.56;57.61;96329.03;6236585;23;20047;-87
2024/02/01 10:23:47;;;;;;;23.40;13.90;;;;;;;10.13;57.37;96314.97;6186702;23;20025;-87
2024/02/01 10:26:23;;;;;;;14.32;8.25;;;;;;;10.49;56.06;96328.81;6161975;23;20067;-87
2024/02/01 10:28:49;;;;;;;12.50;7.78;;;;;;;10.94;55.97;96330.44;6186938;23;20008;-87
2024/02/01 10:31:16;;;;;;;11.88;7.05;;;;;;;10.96;54.48;96323.31;6211927;23;20009;-87
2024/02/01 10:33:42;;;;;;;12.05;7.25;;;;;;;11.18;54.49;96325.59;6186778;23;20055;-87
2024/02/01 10:36:12;;;;;;;13.20;7.85;;;;;;;10.90;55.66;96310.91;6186859;23;20004;-88
2024/02/01 10:47:29;;;;;;;12.25;7.20;;;;;;;11.19;55.85;96309.78;6234585;23;20028;-87
2024/02/01 11:08:35;;;;;;;14.00;7.90;;;;;;;10.83;57.55;96289.06;6239387;22;20016;-87
2024/02/01 11:11:15;;;;;;;;;;;;;;;;;;;;;
2024/02/01 11:25:35;;;;;;;13.15;8.20;;;;;;;11.30;56.71;96299.09;6212879;23;20129;-88
2024/02/01 11:28:11;;;;;;;11.55;7.80;;;;;;;11.11;56.30;96291.50;6211966;23;20004;-87
2024/02/01 11:30:37;;;;;;;12.52;7.90;;;;;;;11.19;56.36;96290.75;6166191;23;20016;-88
2024/02/01 11:33:14;;;;;;;14.60;8.77;;;;;;;11.21;57.37;96296.63;6186436;23;20019;-87
2024/02/01 11:58:50;;;;;;;16.73;10.30;;;;;;;10.83;60.61;96286.44;6187146;23;20028;-86
2024/02/01 12:01:16;;;;;;;13.15;9.77;;;;;;;11.00;60.86;96295.19;6216675;23;20032;-87
2024/02/01 12:03:52;;;;;;;15.75;10.27;;;;;;;10.87;61.03;96294.78;6216707;23;20001;-86
2024/02/01 12:06:22;;;;;;;18.02;11.52;;;;;;;10.88;61.13;96286.81;6217231;23;20089;-87
2024/02/01 12:08:48;;;;;;;19.37;11.80;;;;;;;10.76;61.62;96280.25;6218140;23;20022;-87
2024/02/01 12:11:14;;;;;;;17.35;11.35;;;;;;;10.71;61.71;96285.91;6218112;23;20272;-87
2024/02/01 12:13:46;;;;;;;19.65;11.32;;;;;;;10.78;61.40;96288.72;6218496;23;20028;-86
2024/02/01 12:16:21;;;;;;;18.58;11.32;;;;;;;10.79;61.63;96287.72;6218295;23;20004;-87
2024/02/01 12:18:47;;;;;;;20.77;12.43;;;;;;;10.65;61.88;96286.50;6217976;23;20027;-87
2024/02/01 12:21:12;;;;;;;19.00;11.05;;;;;;;10.46;62.59;96279.69;6218564;23;20008;-87
2024/02/01 13:22:38;;;;;;;12.18;6.07;;;;;;;10.73;61.48;96257.94;6234315;22;20028;-87
2024/02/01 13:25:07;;;;;;;8.05;5.70;;;;;;;10.69;61.62;96254.00;6217572;23;20016;-86
2024/02/01 13:27:32;;;;;;;7.68;5.13;;;;;;;11.06;60.57;96260.75;6217791;23;20007;-87
2024/02/01 13:29:58;;;;;;;7.80;4.80;;;;;;;10.81;60.98;96254.56;6192760;23;20023;-87
2024/02/01 13:37:27;;;;;;;9.20;4.05;;;;;;;10.34;62.54;96263.50;6187655;22;20021;-86
2024/02/01 13:39:52;;;;;;;5.57;4.10;;;;;;;10.42;62.43;96270.56;6187440;23;20013;-88
2024/02/01 14:04:21;;;;;;;6.32;2.97;;;;;;;10.83;62.44;96265.63;6244038;23;20076;-86
2024/02/01 14:19:35;;;;;;;5.20;4.15;;;;;;;10.83;62.48;96278.66;6243079;22;20031;-87
2024/02/01 14:22:01;;;;;;;4.32;3.20;;;;;;;10.98;61.75;96285.91;6218122;23;20004;-87
2024/02/01 14:24:26;;;;;;;5.55;3.40;;;;;;;10.84;62.52;96277.69;6192470;23;20011;-87
2024/02/01 15:00:26;;;;;;;2.72;2.10;;;;;;;10.34;63.66;96292.13;6182786;23;20033;-87
2024/02/01 15:35:57;;;;;;;1.02;0.90;;;;;;;10.34;63.58;96301.72;6184412;22;20052;-87
2024/02/01 15:48:38;;;;;;;1.23;1.08;;;;;;;10.52;62.57;96294.69;6215998;22;20028;-88
2024/02/01 15:51:03;;;;;;;1.90;1.30;;;;;;;10.55;63.00;96317.00;6218577;23;20035;-87
2024/02/01 15:53:30;;;;;;;1.70;1.20;;;;;;;10.50;62.90;96303.63;6218596;23;20228;-86
2024/02/01 16:03:41;;;;;;;2.47;1.10;;;;;;;10.53;63.10;96311.94;6215024;22;20024;-87
2024/02/01 16:06:12;;;;;;;1.52;1.20;;;;;;;10.60;62.72;96316.53;6188299;23;20038;-87
2024/02/01 16:08:50;;;;;;;2.10;1.75;;;;;;;10.52;62.65;96305.09;6188368;23;20017;-87
2024/02/01 16:11:18;;;;;;;3.25;1.52;;;;;;;10.64;62.28;96310.06;6188691;23;20065;-87
2024/02/01 16:34:45;;;;;;;2.00;1.75;;;;;;;10.30;63.80;96282.13;6214575;22;20008;-86
2024/02/01 16:37:11;;;;;;;2.22;2.03;;;;;;;10.47;62.99;96298.72;6215653;23;20047;-88
2024/02/01 16:39:37;;;;;;;3.65;2.10;;;;;;;10.60;62.77;96296.53;6218088;23;20000;-87
2024/02/01 16:44:37;;;;;;;2.72;2.20;;;;;;;10.35;63.52;96300.72;6219807;22;20024;-86
2024/02/01 16:47:02;;;;;;;2.90;2.60;;;;;;;10.42;63.25;96290.56;6218157;23;20019;-87
2024/02/01 16:49:37;;;;;;;3.20;2.67;;;;;;;10.43;63.46;96305.19;6218108;23;20004;-87
2024/02/01 17:07:25;;;;;;;3.53;2.40;;;;;;;10.22;64.33;96318.44;6243208;22;20043;-87
2024/02/01 17:09:54;;;;;;;4.18;2.70;;;;;;;10.08;64.54;96325.78;6193313;23;20064;-87
2024/02/01 17:12:19;;;;;;;4.18;2.88;;;;;;;10.11;64.18;96315.13;6193085;23;20070;-87
2024/02/01 17:14:44;;;;;;;4.63;3.20;;;;;;;10.21;64.52;96337.63;6217671;23;20012;-86
2024/02/01 17:17:24;;;;;;;5.00;2.53;;;;;;;10.15;63.98;96341.63;6218430;23;20015;-88
2024/02/01 17:22:26;;;;;;;3.42;2.38;;;;;;;10.29;63.93;96337.69;6243397;22;20032;-87
2024/02/01 17:29:58;;;;;;;3.63;2.78;;;;;;;10.13;64.37;96331.38;6241684;22;20031;-87
2024/02/01 17:32:32;;;;;;;4.07;2.40;;;;;;;10.25;63.83;96334.56;6217845;23;20035;-86
2024/02/01 17:34:58;;;;;;;3.03;2.50;;;;;;;10.23;63.99;96336.50;6217775;23;20058;-87
2024/02/01 17:37:35;;;;;;;3.13;2.38;;;;;;;10.17;64.38;96337.91;6192501;23;20012;-87
2024/02/01 17:40:02;;;;;;;3.95;3.17;;;;;;;10.34;63.70;96345.91;6217626;23;20008;-86
2024/02/01 17:42:36;;;;;;;5.38;3.42;;;;;;;10.15;64.77;96345.06;6217357;23;20083;-87
2024/02/01 17:47:37;;;;;;;4.38;3.40;;;;;;;10.39;63.91;96345.47;6241436;22;20019;-87
2024/02/01 17:50:38;;;;;;;5.35;3.88;;;;;;;10.53;63.70;96353.56;6192305;23;20004;-87
2024/02/01 17:53:07;;;;;;;5.68;3.80;;;;;;;10.39;63.93;96335.88;6217410;23;20008;-87
2024/02/01 17:55:36;;;;;;;4.72;4.22;;;;;;;10.57;63.87;96354.91;6217740;23;20012;-87
2024/02/01 17:58:02;;;;;;;7.40;4.90;;;;;;;10.60;63.50;96365.97;6241187;23;20008;-87
2024/02/01 18:05:33;;;;;;;4.78;3.70;;;;;;;10.68;63.01;96353.03;6242073;22;20053;-87
2024/02/01 18:07:59;;;;;;;6.93;4.00;;;;;;;10.47;63.63;96356.78;6193443;23;20020;-87
2024/02/01 18:10:35;;;;;;;5.78;4.15;;;;;;;10.45;63.69;96356.09;6192356;23;20042;-87
2024/02/01 18:13:01;;;;;;;6.72;4.72;;;;;;;10.48;63.84;96366.19;6217282;23;20008;-87
2024/02/01 18:20:40;;;;;;;6.20;4.70;;;;;;;10.15;64.37;96357.25;6241098;22;20024;-87
2024/02/01 18:23:05;;;;;;;5.25;3.85;;;;;;;10.33;64.41;96370.28;6217487;23;20016;-86
2024/02/01 18:25:36;;;;;;;4.95;4.45;;;;;;;10.39;63.61;96361.88;6217138;23;20004;-86
2024/02/01 18:40:56;;;;;;;9.52;5.70;;;;;;;10.57;63.12;96367.91;6241391;22;20012;-86
2024/02/01 18:43:24;;;;;;;7.47;5.45;;;;;;;10.68;63.16;96366.03;6216728;23;20015;-86
2024/02/01 18:45:53;;;;;;;8.32;6.10;;;;;;;10.63;63.67;96360.47;6217683;23;20008;-86
2024/02/01 18:48:32;;;;;;;7.70;6.40;;;;;;;10.55;63.85;96371.63;6217379;23;20072;-86
2024/02/01 18:51:03;;;;;;;8.35;6.30;;;;;;;10.59;63.64;96377.38;6217356;23;20016;-86
2024/02/01 18:53:34;;;;;;;9.73;6.45;;;;;;;10.56;63.55;96384.47;6217159;23;20000;-86
2024/02/01 18:56:05;;;;;;;9.75;6.93;;;;;;;10.48;63.73;96379.19;6216990;23;20008;-87
2024/02/01 18:58:31;;;;;;;;;;;;;;;10.32;64.30;96386.88;6192719;23;20008;-87
2024/02/01 19:03:47;;;;;;;8.90;7.43;;;;;;;10.54;63.25;96375.19;6186594;23;20025;-86
2024/02/01 19:06:31;;;;;;;11.27;8.10;;;;;;;10.48;63.60;96381.81;6211964;23;20008;-87
2024/02/01 19:11:24;;;;;;;12.73;7.78;;;;;;;10.77;62.69;96380.75;6242700;22;20020;-86
2024/02/01 19:14:08;;;;;;;11.38;7.68;;;;;;;11.12;61.32;96394.72;6216997;23;20060;-86
2024/02/01 19:16:36;;;;;;;11.55;6.55;;;;;;;10.55;63.07;96372.44;6217526;23;20071;-87
2024/02/01 19:19:07;;;;;;;8.90;7.03;;;;;;;10.78;62.69;96381.59;6193689;23;20065;-86
2024/02/01 19:26:35;;;;;;;13.00;9.18;;;;;;;10.49;63.68;96378.25;6243339;22;20016;-86
2024/02/01 19:49:53;;;;;;;13.60;9.50;;;;;;;10.63;62.94;96357.88;6233273;23;20020;-86
2024/02/01 19:52:18;;;;;;;14.65;10.60;;;;;;;10.87;62.77;96368.50;6218803;23;20107;-87
2024/02/01 19:54:44;;;;;;;16.95;11.10;;;;;;;10.81;62.68;96356.06;6218439;23;20032;-87
2024/02/01 19:59:35;;;;;;;15.02;9.30;;;;;;;10.70;63.46;96364.94;6158674;23;20093;-86
2024/02/01 20:02:00;;;;;;;17.85;11.55;;;;;;;10.74;62.79;96360.25;6134022;23;20044;-87
2024/02/01 20:04:29;;;;;;;17.33;10.73;;;;;;;10.85;62.76;96373.03;6134622;23;20004;-87
2024/02/01 20:06:55;;;;;;;17.90;11.52;;;;;;;10.87;62.71;96365.06;6158724;23;20014;-87
2024/02/01 20:22:08;;;;;;;18.00;11.88;;;;;;;10.83;63.06;96368.94;6231432;22;20042;-86
2024/02/01 20:24:39;;;;;;;25.38;14.75;;;;;;;10.75;63.00;96369.69;6218426;23;20083;-87
2024/02/01 20:27:11;;;;;;;22.50;13.88;;;;;;;10.45;64.22;96389.06;6171212;23;20015;-87
2024/02/01 20:29:39;;;;;;;19.48;13.02;;;;;;;10.45;64.05;96376.06;6218072;23;20073;-86
2024/02/01 20:37:14;;;;;;;21.58;13.48;;;;;;;10.64;63.42;96380.31;6187782;22;20024;-87
2024/02/01 20:39:46;;;;;;;21.77;15.00;;;;;;;10.58;64.01;96381.72;6187689;23;20005;-87
2024/02/01 20:42:24;;;;;;;24.73;15.35;;;;;;;10.64;63.39;96388.13;6163323;23;20012;-88
2024/02/01 20:44:51;;;;;;;22.80;15.05;;;;;;;10.59;63.38;96372.97;6188932;23;20005;-87
2024/02/01 20:55:13;;;;;;;22.58;12.85;;;;;;;10.51;64.08;96389.31;6235120;22;20024;-86
2024/02/01 20:57:38;;;;;;;50.67;13.45;;;;;;;10.39;64.88;96380.09;6218284;23;20020;-87
2024/02/01 21:00:16;;;;;;;685.92;34.42;;;;;;;10.37;64.44;96366.41;6217937;23;20007;-87
2024/02/01 21:03:08;;;;;;;322.17;21.33;;;;;;;10.21;64.93;96374.03;6218125;23;20008;-87
2024/02/01 21:05:47;;;;;;;339.45;21.20;;;;;;;10.13;65.33;96370.38;6218185;23;20060;-87
2024/02/01 21:13:33;;;;;;;455.50;26.90;;;;;;;9.79;66.78;96376.16;6241384;22;20024;-86
2024/02/01 21:16:01;;;;;;;194.05;21.15;;;;;;;9.54;67.72;96382.84;6217746;23;20012;-87
2024/02/01 21:18:34;;;;;;;23.38;14.98;;;;;;;9.78;66.61;96386.69;6192526;23;20004;-86
2024/02/01 21:23:40;;;;;;;26.85;16.33;;;;;;;9.82;66.22;96387.22;6235237;22;20012;-87
2024/02/01 21:26:26;;;;;;;24.38;14.43;;;;;;;9.67;66.46;96386.88;6218276;23;20016;-87
2024/02/01 21:28:57;;;;;;;28.02;15.10;;;;;;;9.86;65.47;96386.81;6217640;23;20006;-87
2024/02/01 21:31:25;;;;;;;16.88;12.30;;;;;;;9.96;65.23;96384.97;6217761;23;20036;-86
2024/02/01 21:33:54;;;;;;;18.10;12.10;;;;;;;10.06;65.26;96374.50;6217835;23;20095;-86
2024/02/01 21:36:21;;;;;;;23.08;13.57;;;;;;;10.27;64.37;96384.66;6217909;23;20011;-86
2024/02/01 21:38:47;;;;;;;17.63;11.68;;;;;;;10.37;64.06;96382.00;6236219;22;20071;-86
2024/02/01 21:43:52;;;;;;;18.17;12.32;;;;;;;10.42;63.65;96377.19;6242423;22;20016;-86
2024/02/01 21:46:17;;;;;;;21.50;13.93;;;;;;;10.44;63.84;96384.84;6217989;23;20031;-87
2024/02/01 21:48:42;;;;;;;23.50;14.43;;;;;;;10.47;63.35;96372.38;6217620;23;20055;-86
2024/02/01 21:53:33;;;;;;;26.38;15.63;;;;;;;10.56;63.55;96357.66;6187313;23;20024;-88
2024/02/01 21:56:02;;;;;;;24.27;15.45;;;;;;;10.59;63.82;96369.56;6212570;23;20007;-87
2024/02/01 21:58:27;;;;;;;22.08;14.63;;;;;;;10.53;63.75;96365.78;6212446;23;20008;-86
2024/02/01 22:00:53;;;;;;;26.55;15.95;;;;;;;10.57;63.38;96348.88;6187452;23;20008;-87
2024/02/01 22:08:19;;;;;;;21.35;14.25;;;;;;;10.60;63.40;96363.38;6241879;22;20245;-87
2024/02/01 22:10:46;;;;;;;27.05;15.75;;;;;;;10.41;64.12;96353.94;6217298;23;20015;-88
2024/02/01 22:13:12;;;;;;;23.60;14.57;;;;;;;10.63;63.18;96370.88;6192503;23;20008;-87
2024/02/01 22:15:37;;;;;;;28.67;17.05;;;;;;;10.50;63.87;96390.28;6192964;23;20015;-87
2024/02/01 22:18:03;;;;;;;23.45;15.70;;;;;;;10.50;63.99;96376.47;6156218;23;20037;-87
2024/02/01 22:20:28;;;;;;;26.63;16.13;;;;;;;10.51;63.96;96378.09;6108690;23;20012;-86
2024/02/01 22:22:54;;;;;;;24.88;15.35;;;;;;;10.51;64.07;96373.72;6157684;23;20011;-87
2024/02/01 22:25:23;;;;;;;24.40;15.32;;;;;;;10.57;63.42;96369.69;6157723;23;20035;-86
2024/02/01 22:27:50;;;;;;;25.73;15.07;;;;;;;10.54;64.02;96383.81;6157623;23;20013;-87
2024/02/01 22:32:51;;;;;;;22.33;13.15;;;;;;;10.62;63.25;96371.84;6213043;23;20031;-87
2024/02/01 22:35:20;;;;;;;20.95;13.25;;;;;;;10.66;63.42;96380.97;6186864;23;20012;-87
2024/02/01 22:37:48;;;;;;;17.80;11.73;;;;;;;10.81;63.19;96387.28;6187029;23;20008;-87
2024/02/01 22:40:13;;;;;;;23.65;13.48;;;;;;;10.81;62.82;96379.47;6163075;23;20001;-86
2024/02/01 22:42:39;;;;;;;21.98;12.93;;;;;;;10.75;63.63;96387.91;6162136;23;20028;-87
2024/02/01 22:45:09;;;;;;;24.10;14.05;;;;;;;10.82;63.26;96394.16;6162224;23;20008;-85
2024/02/01 22:47:34;;;;;;;20.27;12.73;;;;;;;10.53;64.06;96381.38;6188259;23;20036;-87
2024/02/01 22:50:01;;;;;;;17.65;11.38;;;;;;;10.55;63.70;96382.03;6162097;23;20072;-85
2024/02/01 22:54:52;;;;;;;20.05;10.88;;;;;;;10.73;63.14;96398.44;6210328;22;20035;-86
2024/02/01 22:57:19;;;;;;;17.92;11.13;;;;;;;10.76;62.97;96389.53;6192258;23;20059;-87
2024/02/01 22:59:44;;;;;;;18.40;10.82;;;;;;;10.65;63.68;96392.38;6217206;23;19989;-87
2024/02/01 23:02:11;;;;;;;17.67;10.98;;;;;;;10.85;62.40;96386.03;6216869;23;20007;-86
2024/02/01 23:04:39;;;;;;;20.75;11.13;;;;;;;10.68;63.27;96386.84;6216667;23;20008;-87
2024/02/01 23:07:05;;;;;;;18.30;11.38;;;;;;;10.76;63.35;96402.56;6218065;23;20026;-86
2024/02/01 23:09:30;;;;;;;19.38;11.77;;;;;;;10.72;63.23;96388.22;6191827;23;20012;-86
2024/02/01 23:22:06;;;;;;;19.58;10.15;;;;;;;10.67;63.60;96413.84;6190183;22;20024;-87
2024/02/01 23:24:32;;;;;;;15.85;9.48;;;;;;;10.67;63.56;96412.06;6187065;23;20042;-87
2024/02/01 23:26:57;;;;;;;13.57;8.98;;;;;;;10.63;63.34;96395.13;6186697;23;20012;-87
2024/02/01 23:29:23;;;;;;;17.08;9.95;;;;;;;10.37;63.95;96402.81;6187087;23;20005;-87
2024/02/01 23:31:48;;;;;;;15.10;9.07;;;;;;;10.66;63.54;96414.81;6187359;23;20036;-87
2024/02/01 23:34:14;;;;;;;16.90;10.48;;;;;;;10.48;64.06;96397.41;6187322;23;20016;-85
2024/02/01 23:36:42;;;;;;;24.10;12.95;;;;;;;10.63;63.83;96409.91;6187327;23;20190;-86
2024/02/01 23:44:08;;;;;;;15.73;10.45;;;;;;;10.47;64.20;96392.34;6141706;23;20278;-86
2024/02/01 23:46:34;;;;;;;21.17;10.95;;;;;;;10.54;64.08;96396.81;6103558;23;20014;-86
2024/02/01 23:49:00;;;;;;;18.95;11.07;;;;;;;10.65;63.39;96403.59;6101667;23;20088;-86
2024/02/01 23:51:28;;;;;;;31.60;15.18;;;;;;;10.68;63.82;96399.84;6127407;23;20092;-86
2024/02/01 23:56:19;;;;;;;28.70;14.68;;;;;;;10.68;63.89;96399.84;6189336;22;20036;-86
2024/02/01 23:58:48;;;;;;;26.92;13.80;;;;;;;10.53;64.05;96395.19;6191385;23;20004;-86
